createdAt,value
2023-05-05T00:00:20.084Z,22.9
2023-05-05T00:05:38.323Z,22.9
2023-05-05T00:10:56.713Z,22.9
2023-05-05T00:16:14.866Z,22.9
2023-05-05T00:21:33.267Z,22.9
2023-05-05T00:26:51.303Z,23
2023-05-05T00:32:09.819Z,23
2023-05-05T00:37:28.181Z,23
2023-05-05T00:42:46.406Z,23
2023-05-05T00:48:04.578Z,23
2023-05-05T00:53:23.098Z,23
2023-05-05T00:58:41.681Z,23
2023-05-05T01:03:59.865Z,23
2023-05-05T01:09:18.219Z,23
2023-05-05T01:14:36.175Z,23
2023-05-05T01:19:54.732Z,23
2023-05-05T01:25:13.079Z,23
2023-05-05T01:30:31.077Z,23
2023-05-05T01:35:49.108Z,23
2023-05-05T01:41:07.129Z,23
2023-05-05T01:46:25.475Z,23
2023-05-05T01:51:43.980Z,23
2023-05-05T01:57:02.430Z,23
2023-05-05T02:02:20.679Z,23
2023-05-05T02:07:39.124Z,23
2023-05-05T02:12:57.464Z,23
2023-05-05T02:18:15.530Z,23
2023-05-05T02:23:34.063Z,23
2023-05-05T02:28:52.471Z,23
2023-05-05T02:34:11.029Z,23
2023-05-05T02:39:29.176Z,23
2023-05-05T02:44:47.542Z,23
2023-05-05T02:50:06.223Z,23
2023-05-05T02:55:25.183Z,23
2023-05-05T03:00:43.371Z,23.1
2023-05-05T03:06:01.599Z,23
2023-05-05T03:11:19.909Z,23
2023-05-05T03:16:38.353Z,23.1
2023-05-05T03:21:57.024Z,23
2023-05-05T03:27:15.357Z,23.1
2023-05-05T03:32:33.458Z,23.1
2023-05-05T03:37:51.797Z,23.2
2023-05-05T03:43:09.940Z,23.2
2023-05-05T03:48:28.075Z,23.2
2023-05-05T03:53:46.428Z,23.1
2023-05-05T03:59:04.749Z,23.1
2023-05-05T04:04:23.152Z,23.1
2023-05-05T04:09:41.358Z,23.1
2023-05-05T04:14:59.675Z,23.1
2023-05-05T04:20:18.175Z,23.1
2023-05-05T04:25:36.748Z,23.1
2023-05-05T04:30:55.214Z,23.1
2023-05-05T04:36:13.799Z,23
2023-05-05T04:41:31.764Z,22.8
2023-05-05T04:46:50.140Z,22.7
2023-05-05T04:52:08.486Z,22.7
2023-05-05T04:57:26.725Z,22.8
2023-05-05T05:02:45.029Z,22.8
2023-05-05T05:08:03.600Z,22.8
2023-05-05T05:13:22.044Z,22.6
2023-05-05T05:18:40.585Z,22.8
2023-05-05T05:23:59.010Z,22.8
2023-05-05T05:29:17.147Z,22.8
2023-05-05T05:34:35.481Z,22.8
2023-05-05T05:39:54.047Z,22.8
2023-05-05T05:45:12.430Z,22.8
2023-05-05T05:50:34.130Z,22.8
2023-05-05T05:55:52.651Z,22.8
2023-05-05T06:01:11.209Z,22.8
2023-05-05T06:06:29.660Z,22.8
2023-05-05T06:11:48.158Z,22.8
2023-05-05T06:17:08.959Z,22.8
2023-05-05T06:22:27.284Z,22.8
2023-05-05T06:27:45.540Z,22.8
2023-05-05T06:33:03.964Z,22.8
2023-05-05T06:38:22.477Z,22.8
2023-05-05T06:43:40.642Z,22.8
2023-05-05T06:48:59.073Z,22.8
2023-05-05T06:54:17.257Z,22.8
2023-05-05T06:59:36.242Z,22.8
2023-05-05T07:04:54.947Z,22.8
2023-05-05T07:10:13.506Z,22.8
2023-05-05T07:15:32.152Z,22.8
2023-05-05T07:20:50.386Z,22.9
2023-05-05T07:26:08.928Z,22.9
2023-05-05T07:31:27.988Z,22.9
2023-05-05T07:36:46.480Z,22.9
2023-05-05T07:42:04.809Z,22.9
2023-05-05T07:47:23.276Z,22.9
2023-05-05T07:52:51.673Z,23
2023-05-05T07:58:28.079Z,23
2023-05-05T08:03:46.895Z,23
2023-05-05T08:09:05.808Z,23
2023-05-05T08:14:24.445Z,23
2023-05-05T08:19:30.124Z,23
2023-05-05T08:24:48.742Z,23
2023-05-05T08:30:06.977Z,23.1
2023-05-05T08:35:25.555Z,23.1
2023-05-05T08:40:44.054Z,23.1
2023-05-05T08:46:02.656Z,23.1
2023-05-05T08:51:21.535Z,23.1
2023-05-05T08:56:40.095Z,23.1
2023-05-05T09:01:58.159Z,23.1
2023-05-05T09:07:16.559Z,23.1
2023-05-05T09:12:35.045Z,23.1
2023-05-05T09:17:53.817Z,23.1
2023-05-05T09:23:12.552Z,23.2
2023-05-05T09:28:30.827Z,23.2
2023-05-05T09:33:49.206Z,23.2
2023-05-05T09:39:07.883Z,23.2
2023-05-05T09:44:26.338Z,23.2
2023-05-05T09:49:44.772Z,23.2
2023-05-05T09:55:03.365Z,23.2
2023-05-05T10:00:22.241Z,23.2
2023-05-05T10:05:40.868Z,23.2
2023-05-05T10:10:59.746Z,23.3
2023-05-05T10:16:20.867Z,23.3
2023-05-05T10:21:42.129Z,23.2
2023-05-05T10:27:00.958Z,23.3
2023-05-05T10:32:57.199Z,23.3
2023-05-05T10:38:35.444Z,23.2
2023-05-05T10:43:54.265Z,23.2
2023-05-05T10:49:14.114Z,23.2
2023-05-05T10:54:32.628Z,23.2
2023-05-05T10:59:52.844Z,23.3
2023-05-05T11:05:11.426Z,23.3
2023-05-05T11:10:29.869Z,23.3
2023-05-05T11:15:48.349Z,23.3
2023-05-05T11:21:09.503Z,23.2
2023-05-05T11:26:28.081Z,23.3
2023-05-05T11:31:46.706Z,23.3
2023-05-05T11:37:04.936Z,23.3
2023-05-05T11:42:23.095Z,23.3
2023-05-05T11:47:41.411Z,23.3
2023-05-05T11:53:00.001Z,23.3
2023-05-05T11:58:18.395Z,23.3
2023-05-05T12:03:37.648Z,23.3
2023-05-05T12:08:56.536Z,23.3
2023-05-05T12:14:14.894Z,23.3
2023-05-05T12:19:33.742Z,23.3
2023-05-05T12:24:55.115Z,23.3
2023-05-05T12:29:58.064Z,23.3
2023-05-05T12:35:16.519Z,23.3
2023-05-05T12:40:35.085Z,23.3
2023-05-05T12:45:54.073Z,23.3
2023-05-05T12:51:12.758Z,23.3
2023-05-05T12:56:15.563Z,23.3
2023-05-05T13:01:34.247Z,23.3
2023-05-05T13:06:54.754Z,23.3
2023-05-05T13:11:57.839Z,23.3
2023-05-05T13:17:15.918Z,23.2
2023-05-05T13:22:34.670Z,23.2
2023-05-05T13:27:53.112Z,23.2
2023-05-05T13:33:11.635Z,23.2
2023-05-05T13:38:30.047Z,23.2
2023-05-05T13:43:48.680Z,23.2
2023-05-05T13:49:06.948Z,23.3
2023-05-05T13:54:25.656Z,23.2
2023-05-05T13:59:28.625Z,23.2
2023-05-05T14:04:46.929Z,23.2
2023-05-05T14:10:05.201Z,23.1
2023-05-05T14:15:23.836Z,23.1
2023-05-05T14:20:42.199Z,23.1
2023-05-05T14:26:01.737Z,23.1
2023-05-05T14:31:20.113Z,23.1
2023-05-05T14:36:38.484Z,23.1
2023-05-05T14:41:57.531Z,23.1
2023-05-05T14:47:00.549Z,23.1
2023-05-05T14:52:20.092Z,23.1
2023-05-05T14:57:38.592Z,23.1
2023-05-05T15:02:57.698Z,23.1
2023-05-05T15:08:16.544Z,23.1
2023-05-05T15:13:35.329Z,23.1
2023-05-05T15:18:54.225Z,23.1
2023-05-05T15:24:12.673Z,23.1
2023-05-05T15:29:31.098Z,23.1
2023-05-05T15:34:50.936Z,23.1
2023-05-05T15:40:09.487Z,23.1
2023-05-05T15:45:27.946Z,23.1
2023-05-05T15:50:46.488Z,23.1
2023-05-05T15:56:04.560Z,23.1
2023-05-05T16:01:24.096Z,23.1
2023-05-05T16:06:42.424Z,23.1
2023-05-05T16:12:00.976Z,23.1
2023-05-05T16:17:22.229Z,23.1
2023-05-05T16:22:41.895Z,23.1
2023-05-05T16:28:00.233Z,23.1
2023-05-05T16:33:18.763Z,23.1
2023-05-05T16:38:37.004Z,23.1
2023-05-05T16:43:55.416Z,23
2023-05-05T16:49:13.995Z,23
2023-05-05T16:54:32.173Z,23
2023-05-05T16:59:50.702Z,23
2023-05-05T17:05:09.828Z,23
2023-05-05T17:10:29.247Z,23
2023-05-05T17:15:47.897Z,23
2023-05-05T17:21:06.597Z,23
2023-05-05T17:26:25.272Z,23
2023-05-05T17:31:43.772Z,23
2023-05-05T17:37:02.611Z,23
2023-05-05T17:42:21.239Z,23
2023-05-05T17:47:39.837Z,23
2023-05-05T17:52:58.519Z,22.9
2023-05-05T17:58:17.267Z,22.9
2023-05-05T18:03:36.400Z,22.9
2023-05-05T18:08:59.007Z,22.9
2023-05-05T18:14:20.445Z,22.9
2023-05-05T18:19:38.880Z,22.9
2023-05-05T18:24:57.419Z,22.9
2023-05-05T18:30:16.061Z,22.9
2023-05-05T18:35:34.460Z,22.9
2023-05-05T18:40:53.140Z,22.9
2023-05-05T18:46:11.956Z,22.9
2023-05-05T18:51:30.629Z,22.9
2023-05-05T18:56:49.339Z,22.9
2023-05-05T19:01:52.075Z,22.9
2023-05-05T19:07:11.047Z,22.9
2023-05-05T19:12:42.053Z,22.9
2023-05-05T19:18:00.247Z,22.9
2023-05-05T19:23:18.450Z,22.9
2023-05-05T19:28:36.704Z,22.9
2023-05-05T19:33:55.428Z,22.9
2023-05-05T19:39:16.173Z,22.9
2023-05-05T19:44:34.674Z,22.9
2023-05-05T19:49:53.226Z,22.9
2023-05-05T19:55:11.127Z,22.9
2023-05-05T20:00:29.394Z,22.7
2023-05-05T20:05:47.537Z,22.8
2023-05-05T20:11:06.070Z,22.8
2023-05-05T20:16:25.117Z,22.8
2023-05-05T20:21:43.604Z,22.8
2023-05-05T20:27:02.264Z,22.8
2023-05-05T20:32:21.009Z,22.8
2023-05-05T20:37:39.740Z,22.8
2023-05-05T20:42:58.091Z,22.8
2023-05-05T20:48:16.485Z,22.8
2023-05-05T20:53:34.993Z,22.8
2023-05-05T20:58:53.572Z,22.8
2023-05-05T21:04:12.360Z,22.9
2023-05-05T21:09:30.860Z,22.9
2023-05-05T21:14:50.474Z,22.9
2023-05-05T21:20:09.765Z,22.9
2023-05-05T21:25:29.167Z,22.9
2023-05-05T21:31:20.979Z,22.9
2023-05-05T21:36:40.537Z,22.9
2023-05-05T21:41:59.259Z,22.9
2023-05-05T21:47:18.020Z,22.9
2023-05-05T21:52:36.392Z,22.9
2023-05-05T21:57:54.837Z,22.9
2023-05-05T22:03:12.955Z,22.9
2023-05-05T22:08:31.209Z,22.9
2023-05-05T22:13:49.665Z,22.9
2023-05-05T22:19:07.610Z,22.9
2023-05-05T22:24:26.582Z,22.9
2023-05-05T22:29:44.668Z,22.9
2023-05-05T22:35:03.019Z,22.9
2023-05-05T22:40:21.489Z,22.9
2023-05-05T22:45:39.934Z,22.9
2023-05-05T22:50:58.317Z,22.9
2023-05-05T22:56:17.172Z,22.9
2023-05-05T23:01:35.318Z,22.9
2023-05-05T23:06:53.855Z,22.9
2023-05-05T23:11:57.984Z,22.9
2023-05-05T23:17:16.213Z,22.9
2023-05-05T23:22:34.536Z,22.9
2023-05-05T23:27:53.330Z,22.9
2023-05-05T23:33:11.970Z,22.9
2023-05-05T23:38:30.380Z,22.9
2023-05-05T23:43:48.851Z,22.9
2023-05-05T23:49:07.398Z,22.9
2023-05-05T23:54:25.933Z,22.9
2023-05-05T23:59:44.544Z,22.9
